Capitol Logistics 317




KRFD
Chicago/Rockford International Airport
Rockford, Illinois
KCVG
Cincinnati/Northern Kentucky International Airport
Covington, Kentucky

Activity Log

Date Flight Route Aircraft Duration
03/19/2022 CPX317 SHOOF ELANR CEGRM5 B763 1h 07m
12/10/2021 CPX317 SHOOF ELANR CEGRM5 B752 0h 47m
11/12/2021 CPX317 JOT ELANR CEGRM5 B738 1h 05m
11/06/2021 CPX317 SHOOF ELANR CEGRM5 B763 1h 09m

Route Details

Aircraft Information
Group: North America Fleet
Types: B738,B752,B762,B763
Route Data
Demand: H
Distance: 277nm
Duration: 0h 51m
Recm'd Route: SHOOF ELANR CEGRM5
Origin Wx: KRFD 270654Z 35005KT 10SM OVC090 17/15 A2973 RMK AO2 RAE29DZB29E42 SLP063 P0004 T01670150 $
Dest. Wx: KCVG 270652Z 19004KT 10SM FEW060 15/15 A2980 RMK AO2 SLP085 T01500150 $
Notes:

Financial History
Total Freight: 296,092lbs
Average Load: 74,023lbs/flt
Fuel Used: 38,706lbs
Avg. Fuel Used: 9,677lbs/flt
Fuel Expense: $15,829
Avg. Fuel Expense: $3,957
Avg. Fuel Cost: $0.39/lbs
Total Gross Income: $678,151
Pilot Pay: $676
Total Expenses: $97,044
Total Revenue: $564,702
Average Revenue: $169,537.87